sensor_id;sensor_type;location;lat;lon;timestamp;pressure;altitude;pressure_sealevel;temperature;humidity
62025;BME280;47978;49.118;12.146;2023-07-24T00:01:00;96956.75;;;16.94;70.87
62025;BME280;47978;49.118;12.146;2023-07-24T00:05:02;96934.03;;;16.95;70.76
62025;BME280;47978;49.118;12.146;2023-07-24T00:09:05;96907.00;;;16.99;70.02
62025;BME280;47978;49.118;12.146;2023-07-24T00:13:06;96881.00;;;16.79;71.56
62025;BME280;47978;49.118;12.146;2023-07-24T00:17:08;96865.56;;;16.85;70.77
62025;BME280;47978;49.118;12.146;2023-07-24T00:21:09;96858.50;;;16.76;71.01
62025;BME280;47978;49.118;12.146;2023-07-24T00:25:12;96848.91;;;16.57;71.75
62025;BME280;47978;49.118;12.146;2023-07-24T00:29:14;96836.63;;;16.62;70.59
62025;BME280;47978;49.118;12.146;2023-07-24T00:33:15;96826.84;;;16.52;71.59
62025;BME280;47978;49.118;12.146;2023-07-24T00:37:16;96840.28;;;16.62;72.44
62025;BME280;47978;49.118;12.146;2023-07-24T00:41:19;96845.22;;;16.37;72.63
62025;BME280;47978;49.118;12.146;2023-07-24T00:45:21;96852.63;;;16.46;72.24
62025;BME280;47978;49.118;12.146;2023-07-24T00:49:22;96855.09;;;16.19;74.29
62025;BME280;47978;49.118;12.146;2023-07-24T00:53:24;96858.97;;;16.14;73.99
62025;BME280;47978;49.118;12.146;2023-07-24T00:57:27;96860.41;;;16.24;73.76
62025;BME280;47978;49.118;12.146;2023-07-24T01:01:29;96853.59;;;16.37;72.57
62025;BME280;47978;49.118;12.146;2023-07-24T01:05:31;96864.41;;;16.55;72.16
62025;BME280;47978;49.118;12.146;2023-07-24T01:09:32;96897.19;;;16.90;71.58
62025;BME280;47978;49.118;12.146;2023-07-24T01:13:36;96922.97;;;17.34;69.05
62025;BME280;47978;49.118;12.146;2023-07-24T01:17:39;96965.75;;;17.54;68.35
62025;BME280;47978;49.118;12.146;2023-07-24T01:21:44;96940.00;;;17.45;69.39
62025;BME280;47978;49.118;12.146;2023-07-24T01:25:55;96896.38;;;17.60;68.71
62025;BME280;47978;49.118;12.146;2023-07-24T01:29:57;96905.78;;;17.51;67.62
62025;BME280;47978;49.118;12.146;2023-07-24T01:33:58;96920.63;;;17.56;69.38
62025;BME280;47978;49.118;12.146;2023-07-24T01:37:59;96932.63;;;17.21;70.22
62025;BME280;47978;49.118;12.146;2023-07-24T01:42:02;96927.03;;;17.37;69.32
62025;BME280;47978;49.118;12.146;2023-07-24T01:46:04;96879.72;;;17.28;69.70
62025;BME280;47978;49.118;12.146;2023-07-24T01:50:06;96902.16;;;17.31;70.62
62025;BME280;47978;49.118;12.146;2023-07-24T01:54:07;96895.31;;;17.29;69.70
62025;BME280;47978;49.118;12.146;2023-07-24T01:58:10;96880.63;;;17.71;66.51
62025;BME280;47978;49.118;12.146;2023-07-24T02:02:12;96865.88;;;18.13;64.35
62025;BME280;47978;49.118;12.146;2023-07-24T02:06:13;96852.63;;;18.10;66.08
62025;BME280;47978;49.118;12.146;2023-07-24T02:10:15;96884.75;;;17.77;69.27
62025;BME280;47978;49.118;12.146;2023-07-24T02:14:18;96907.69;;;17.67;68.44
62025;BME280;47978;49.118;12.146;2023-07-24T02:18:19;96895.72;;;17.66;68.83
62025;BME280;47978;49.118;12.146;2023-07-24T02:22:20;96892.19;;;17.69;68.25
62025;BME280;47978;49.118;12.146;2023-07-24T02:26:22;96835.38;;;17.65;68.32
62025;BME280;47978;49.118;12.146;2023-07-24T02:30:25;96850.00;;;17.59;69.36
62025;BME280;47978;49.118;12.146;2023-07-24T02:34:26;96840.59;;;17.28;70.80
62025;BME280;47978;49.118;12.146;2023-07-24T02:38:27;96857.25;;;17.24;71.46
62025;BME280;47978;49.118;12.146;2023-07-24T02:42:29;96840.63;;;17.12;71.83
62025;BME280;47978;49.118;12.146;2023-07-24T02:46:32;96835.47;;;16.95;71.81
62025;BME280;47978;49.118;12.146;2023-07-24T02:50:33;96822.00;;;16.65;73.58
62025;BME280;47978;49.118;12.146;2023-07-24T02:54:34;96812.63;;;16.41;75.20
62025;BME280;47978;49.118;12.146;2023-07-24T02:58:36;96804.00;;;16.31;74.24
62025;BME280;47978;49.118;12.146;2023-07-24T03:02:39;96795.28;;;16.01;76.40
62025;BME280;47978;49.118;12.146;2023-07-24T03:06:40;96771.72;;;16.14;75.41
62025;BME280;47978;49.118;12.146;2023-07-24T03:10:42;96766.28;;;15.89;76.88
62025;BME280;47978;49.118;12.146;2023-07-24T03:14:43;96769.59;;;15.79;77.23
62025;BME280;47978;49.118;12.146;2023-07-24T03:18:46;96771.03;;;15.73;77.99
62025;BME280;47978;49.118;12.146;2023-07-24T03:22:47;96768.84;;;15.66;77.92
62025;BME280;47978;49.118;12.146;2023-07-24T03:26:49;96768.72;;;15.75;77.84
62025;BME280;47978;49.118;12.146;2023-07-24T03:30:50;96748.75;;;16.05;76.72
62025;BME280;47978;49.118;12.146;2023-07-24T03:34:53;96753.44;;;16.01;76.23
62025;BME280;47978;49.118;12.146;2023-07-24T03:38:55;96749.94;;;16.04;76.12
62025;BME280;47978;49.118;12.146;2023-07-24T03:42:56;96742.44;;;16.08;75.69
62025;BME280;47978;49.118;12.146;2023-07-24T03:46:57;96760.53;;;16.30;75.11
62025;BME280;47978;49.118;12.146;2023-07-24T03:51:00;96776.13;;;16.31;76.93
62025;BME280;47978;49.118;12.146;2023-07-24T03:55:02;96794.63;;;16.39;75.30
62025;BME280;47978;49.118;12.146;2023-07-24T03:59:05;96799.75;;;16.53;73.83
62025;BME280;47978;49.118;12.146;2023-07-24T04:03:06;96807.38;;;16.72;74.42
62025;BME280;47978;49.118;12.146;2023-07-24T04:07:09;96822.94;;;16.73;73.88
62025;BME280;47978;49.118;12.146;2023-07-24T04:11:11;96858.88;;;16.90;74.40
62025;BME280;47978;49.118;12.146;2023-07-24T04:15:12;96850.88;;;16.89;75.33
62025;BME280;47978;49.118;12.146;2023-07-24T04:19:14;96842.38;;;17.01;74.20
62025;BME280;47978;49.118;12.146;2023-07-24T04:23:16;96795.78;;;17.63;66.87
62025;BME280;47978;49.118;12.146;2023-07-24T04:27:18;96692.59;;;18.01;65.33
62025;BME280;47978;49.118;12.146;2023-07-24T04:31:19;96637.59;;;18.38;63.43
62025;BME280;47978;49.118;12.146;2023-07-24T04:35:21;96641.94;;;18.62;62.07
62025;BME280;47978;49.118;12.146;2023-07-24T04:39:24;96673.78;;;18.77;62.49
62025;BME280;47978;49.118;12.146;2023-07-24T04:43:25;96677.16;;;18.90;61.67
62025;BME280;47978;49.118;12.146;2023-07-24T04:47:27;96702.41;;;18.94;61.52
62025;BME280;47978;49.118;12.146;2023-07-24T04:51:28;96710.00;;;18.93;62.60
62025;BME280;47978;49.118;12.146;2023-07-24T04:55:31;96704.25;;;18.82;62.98
62025;BME280;47978;49.118;12.146;2023-07-24T04:59:33;96691.28;;;18.71;64.09
62025;BME280;47978;49.118;12.146;2023-07-24T05:03:34;96704.41;;;18.93;62.88
62025;BME280;47978;49.118;12.146;2023-07-24T05:07:35;96694.06;;;19.35;63.80
62025;BME280;47978;49.118;12.146;2023-07-24T05:11:38;96690.75;;;19.59;63.40
62025;BME280;47978;49.118;12.146;2023-07-24T05:15:40;96694.41;;;19.29;65.09
62025;BME280;47978;49.118;12.146;2023-07-24T05:19:41;96682.25;;;19.52;64.67
62025;BME280;47978;49.118;12.146;2023-07-24T05:23:43;96693.53;;;19.55;65.41
62025;BME280;47978;49.118;12.146;2023-07-24T05:27:45;96683.75;;;19.42;66.22
62025;BME280;47978;49.118;12.146;2023-07-24T05:31:47;96693.44;;;19.15;65.20
62025;BME280;47978;49.118;12.146;2023-07-24T05:35:48;96693.78;;;19.43;64.52
62025;BME280;47978;49.118;12.146;2023-07-24T05:39:50;96667.38;;;21.06;60.06
62025;BME280;47978;49.118;12.146;2023-07-24T05:43:52;96641.72;;;22.87;53.87
62025;BME280;47978;49.118;12.146;2023-07-24T05:47:54;96644.44;;;23.19;53.23
62025;BME280;47978;49.118;12.146;2023-07-24T05:51:55;96649.41;;;22.76;55.03
62025;BME280;47978;49.118;12.146;2023-07-24T05:55:57;96638.47;;;24.74;50.17
62025;BME280;47978;49.118;12.146;2023-07-24T06:00:00;96635.81;;;24.56;50.15
62025;BME280;47978;49.118;12.146;2023-07-24T06:04:02;96642.94;;;24.26;49.92
62025;BME280;47978;49.118;12.146;2023-07-24T06:08:03;96632.44;;;24.27;49.11
62025;BME280;47978;49.118;12.146;2023-07-24T06:12:05;96633.91;;;24.45;49.72
62025;BME280;47978;49.118;12.146;2023-07-24T06:16:08;96639.59;;;24.38;50.42
62025;BME280;47978;49.118;12.146;2023-07-24T06:20:10;96640.88;;;23.85;50.65
62025;BME280;47978;49.118;12.146;2023-07-24T06:24:11;96640.78;;;23.92;50.84
62025;BME280;47978;49.118;12.146;2023-07-24T06:28:12;96633.84;;;23.41;51.86
62025;BME280;47978;49.118;12.146;2023-07-24T06:32:15;96626.03;;;24.64;49.77
62025;BME280;47978;49.118;12.146;2023-07-24T06:36:17;96625.06;;;24.78;48.56
62025;BME280;47978;49.118;12.146;2023-07-24T06:40:18;96628.66;;;25.47;47.20
62025;BME280;47978;49.118;12.146;2023-07-24T06:44:19;96627.84;;;25.46;47.42
62025;BME280;47978;49.118;12.146;2023-07-24T06:48:22;96615.50;;;26.38;44.24
62025;BME280;47978;49.118;12.146;2023-07-24T06:52:24;96612.03;;;25.22;46.67
62025;BME280;47978;49.118;12.146;2023-07-24T06:56:25;96624.16;;;25.22;46.06
62025;BME280;47978;49.118;12.146;2023-07-24T07:00:27;96623.44;;;27.50;43.45
62025;BME280;47978;49.118;12.146;2023-07-24T07:04:29;96609.47;;;26.79;44.58
62025;BME280;47978;49.118;12.146;2023-07-24T07:08:31;96610.78;;;27.71;42.30
62025;BME280;47978;49.118;12.146;2023-07-24T07:12:32;96606.63;;;26.59;44.36
62025;BME280;47978;49.118;12.146;2023-07-24T07:16:34;96619.81;;;27.66;42.41
62025;BME280;47978;49.118;12.146;2023-07-24T07:20:36;96628.72;;;27.68;41.92
62025;BME280;47978;49.118;12.146;2023-07-24T07:24:38;96618.47;;;28.56;41.62
62025;BME280;47978;49.118;12.146;2023-07-24T07:28:39;96629.59;;;27.65;42.25
62025;BME280;47978;49.118;12.146;2023-07-24T07:32:41;96630.13;;;25.86;45.70
62025;BME280;47978;49.118;12.146;2023-07-24T07:36:44;96629.31;;;25.58;47.98
62025;BME280;47978;49.118;12.146;2023-07-24T07:40:45;96628.34;;;24.73;49.44
62025;BME280;47978;49.118;12.146;2023-07-24T07:44:46;96645.84;;;24.98;50.96
62025;BME280;47978;49.118;12.146;2023-07-24T07:48:48;96657.97;;;23.56;54.54
62025;BME280;47978;49.118;12.146;2023-07-24T07:52:51;96678.78;;;22.82;57.47
62025;BME280;47978;49.118;12.146;2023-07-24T07:56:52;96719.88;;;22.79;58.26
62025;BME280;47978;49.118;12.146;2023-07-24T08:00:54;96763.81;;;22.41;60.17
62025;BME280;47978;49.118;12.146;2023-07-24T08:04:55;96766.59;;;22.34;61.67
62025;BME280;47978;49.118;12.146;2023-07-24T08:08:59;96790.31;;;22.15;63.27
62025;BME280;47978;49.118;12.146;2023-07-24T08:13:00;96785.81;;;21.74;63.79
62025;BME280;47978;49.118;12.146;2023-07-24T08:17:01;96791.81;;;21.73;65.26
62025;BME280;47978;49.118;12.146;2023-07-24T08:21:04;96793.41;;;21.74;65.34
62025;BME280;47978;49.118;12.146;2023-07-24T08:25:07;96799.84;;;21.67;65.73
62025;BME280;47978;49.118;12.146;2023-07-24T08:29:09;96802.16;;;21.47;68.57
62025;BME280;47978;49.118;12.146;2023-07-24T08:33:10;96802.84;;;21.30;69.53
62025;BME280;47978;49.118;12.146;2023-07-24T08:37:12;96802.16;;;21.44;69.91
62025;BME280;47978;49.118;12.146;2023-07-24T08:41:14;96813.56;;;21.06;71.94
62025;BME280;47978;49.118;12.146;2023-07-24T08:45:16;96804.28;;;21.02;72.96
62025;BME280;47978;49.118;12.146;2023-07-24T08:49:18;96808.75;;;21.07;73.78
62025;BME280;47978;49.118;12.146;2023-07-24T08:53:19;96778.47;;;20.82;75.37
62025;BME280;47978;49.118;12.146;2023-07-24T08:57:23;96782.25;;;21.08;75.36
62025;BME280;47978;49.118;12.146;2023-07-24T09:01:25;96783.94;;;20.61;77.42
62025;BME280;47978;49.118;12.146;2023-07-24T09:05:26;96787.41;;;20.95;77.02
62025;BME280;47978;49.118;12.146;2023-07-24T09:09:29;96780.28;;;21.19;76.75
62025;BME280;47978;49.118;12.146;2023-07-24T09:13:32;96758.97;;;21.11;77.13
62025;BME280;47978;49.118;12.146;2023-07-24T09:17:35;96750.56;;;21.18;77.06
62025;BME280;47978;49.118;12.146;2023-07-24T09:21:37;96720.06;;;21.24;77.47
62025;BME280;47978;49.118;12.146;2023-07-24T09:25:38;96690.03;;;21.42;75.42
62025;BME280;47978;49.118;12.146;2023-07-24T09:29:42;96687.13;;;21.31;76.08
62025;BME280;47978;49.118;12.146;2023-07-24T09:33:43;96714.53;;;21.45;75.48
62025;BME280;47978;49.118;12.146;2023-07-24T09:37:45;96692.69;;;21.14;74.69
62025;BME280;47978;49.118;12.146;2023-07-24T09:41:47;96695.50;;;21.14;75.03
62025;BME280;47978;49.118;12.146;2023-07-24T09:45:50;96669.59;;;21.63;75.33
62025;BME280;47978;49.118;12.146;2023-07-24T09:49:52;96669.19;;;22.11;72.28
62025;BME280;47978;49.118;12.146;2023-07-24T09:53:55;96653.00;;;23.01;68.58
62025;BME280;47978;49.118;12.146;2023-07-24T09:57:57;96641.34;;;22.88;67.28
62025;BME280;47978;49.118;12.146;2023-07-24T10:02:01;96612.81;;;22.61;67.44
62025;BME280;47978;49.118;12.146;2023-07-24T10:06:03;96605.81;;;23.09;65.31
62025;BME280;47978;49.118;12.146;2023-07-24T10:10:05;96602.38;;;24.06;61.60
62025;BME280;47978;49.118;12.146;2023-07-24T10:14:08;96602.97;;;23.79;60.40
62025;BME280;47978;49.118;12.146;2023-07-24T10:18:10;96600.19;;;23.75;61.23
62025;BME280;47978;49.118;12.146;2023-07-24T10:22:16;96584.75;;;23.87;59.72
62025;BME280;47978;49.118;12.146;2023-07-24T10:26:23;96584.19;;;24.07;58.55
62025;BME280;47978;49.118;12.146;2023-07-24T10:30:28;96568.69;;;24.26;59.00
62025;BME280;47978;49.118;12.146;2023-07-24T10:34:37;96574.78;;;24.58;56.57
62025;BME280;47978;49.118;12.146;2023-07-24T10:38:39;96568.00;;;25.48;55.47
62025;BME280;47978;49.118;12.146;2023-07-24T10:42:41;96589.59;;;24.69;56.10
62025;BME280;47978;49.118;12.146;2023-07-24T10:46:43;96580.72;;;24.71;54.01
62025;BME280;47978;49.118;12.146;2023-07-24T10:50:46;96578.00;;;25.79;52.04
62025;BME280;47978;49.118;12.146;2023-07-24T10:54:52;96568.28;;;25.80;52.64
62025;BME280;47978;49.118;12.146;2023-07-24T10:58:54;96571.34;;;25.93;53.35
62025;BME280;47978;49.118;12.146;2023-07-24T11:02:55;96573.09;;;26.31;53.43
62025;BME280;47978;49.118;12.146;2023-07-24T11:06:58;96579.81;;;26.40;51.54
62025;BME280;47978;49.118;12.146;2023-07-24T11:11:00;96580.94;;;26.23;52.42
62025;BME280;47978;49.118;12.146;2023-07-24T11:15:02;96590.13;;;26.07;53.26
62025;BME280;47978;49.118;12.146;2023-07-24T11:19:03;96576.81;;;26.28;53.09
62025;BME280;47978;49.118;12.146;2023-07-24T11:23:06;96557.91;;;26.41;52.76
62025;BME280;47978;49.118;12.146;2023-07-24T11:27:08;96549.91;;;26.79;52.09
62025;BME280;47978;49.118;12.146;2023-07-24T11:31:10;96545.59;;;26.51;52.09
62025;BME280;47978;49.118;12.146;2023-07-24T11:35:11;96547.16;;;26.32;52.41
62025;BME280;47978;49.118;12.146;2023-07-24T11:39:14;96541.56;;;26.29;52.41
62025;BME280;47978;49.118;12.146;2023-07-24T11:43:23;96550.25;;;25.71;53.62
62025;BME280;47978;49.118;12.146;2023-07-24T11:47:24;96555.81;;;25.51;54.15
62025;BME280;47978;49.118;12.146;2023-07-24T11:51:26;96552.09;;;25.30;53.67
62025;BME280;47978;49.118;12.146;2023-07-24T11:55:31;96547.94;;;25.35;53.97
62025;BME280;47978;49.118;12.146;2023-07-24T11:59:36;96545.19;;;25.01;55.32
62025;BME280;47978;49.118;12.146;2023-07-24T12:03:38;96549.00;;;24.87;54.70
62025;BME280;47978;49.118;12.146;2023-07-24T12:07:41;96550.50;;;24.95;54.90
62025;BME280;47978;49.118;12.146;2023-07-24T12:11:46;96573.31;;;24.81;54.78
62025;BME280;47978;49.118;12.146;2023-07-24T12:15:47;96571.72;;;24.45;58.58
62025;BME280;47978;49.118;12.146;2023-07-24T12:19:49;96577.09;;;24.29;60.48
62025;BME280;47978;49.118;12.146;2023-07-24T12:23:50;96571.81;;;24.35;61.96
62025;BME280;47978;49.118;12.146;2023-07-24T12:27:53;96573.88;;;24.31;61.94
62025;BME280;47978;49.118;12.146;2023-07-24T12:31:54;96601.41;;;23.67;68.01
62025;BME280;47978;49.118;12.146;2023-07-24T12:35:56;96618.09;;;22.41;77.93
62025;BME280;47978;49.118;12.146;2023-07-24T12:39:57;96598.84;;;21.90;82.04
62025;BME280;47978;49.118;12.146;2023-07-24T12:44:00;96581.94;;;21.97;81.10
62025;BME280;47978;49.118;12.146;2023-07-24T12:48:01;96616.09;;;22.17;82.03
62025;BME280;47978;49.118;12.146;2023-07-24T12:52:03;96666.78;;;21.85;83.53
62025;BME280;47978;49.118;12.146;2023-07-24T12:56:04;96700.81;;;21.29;87.18
62025;BME280;47978;49.118;12.146;2023-07-24T13:00:08;96722.41;;;21.07;87.71
62025;BME280;47978;49.118;12.146;2023-07-24T13:04:09;96715.97;;;21.03;89.11
62025;BME280;47978;49.118;12.146;2023-07-24T13:08:11;96711.47;;;20.88;88.13
62025;BME280;47978;49.118;12.146;2023-07-24T13:12:12;96699.75;;;20.75;88.83
62025;BME280;47978;49.118;12.146;2023-07-24T13:16:15;96686.00;;;20.56;88.11
62025;BME280;47978;49.118;12.146;2023-07-24T13:20:17;96673.03;;;20.44;86.37
62025;BME280;47978;49.118;12.146;2023-07-24T13:24:18;96667.81;;;20.42;85.59
62025;BME280;47978;49.118;12.146;2023-07-24T13:28:20;96647.97;;;20.14;89.69
62025;BME280;47978;49.118;12.146;2023-07-24T13:32:22;96635.31;;;20.41;91.74
62025;BME280;47978;49.118;12.146;2023-07-24T13:36:24;96587.94;;;20.40;93.86
62025;BME280;47978;49.118;12.146;2023-07-24T13:40:25;96556.09;;;20.87;88.20
62025;BME280;47978;49.118;12.146;2023-07-24T13:44:27;96527.69;;;21.64;85.78
62025;BME280;47978;49.118;12.146;2023-07-24T13:48:29;96511.88;;;22.38;83.83
62025;BME280;47978;49.118;12.146;2023-07-24T13:52:31;96502.09;;;22.64;79.03
62025;BME280;47978;49.118;12.146;2023-07-24T13:56:32;96497.72;;;23.26;78.50
62025;BME280;47978;49.118;12.146;2023-07-24T14:00:34;96496.50;;;23.31;79.12
62025;BME280;47978;49.118;12.146;2023-07-24T14:04:37;96486.25;;;22.92;77.99
62025;BME280;47978;49.118;12.146;2023-07-24T14:08:38;96475.16;;;22.60;78.13
62025;BME280;47978;49.118;12.146;2023-07-24T14:12:40;96466.69;;;22.56;78.93
62025;BME280;47978;49.118;12.146;2023-07-24T15:50:26;96472.00;;;22.43;72.38
62025;BME280;47978;49.118;12.146;2023-07-24T15:54:27;96485.38;;;22.21;72.07
62025;BME280;47978;49.118;12.146;2023-07-24T15:58:29;96486.56;;;22.24;71.88
62025;BME280;47978;49.118;12.146;2023-07-24T16:02:30;96473.34;;;22.03;73.18
62025;BME280;47978;49.118;12.146;2023-07-24T16:06:33;96466.16;;;21.81;75.39
62025;BME280;47978;49.118;12.146;2023-07-24T16:10:35;96479.03;;;21.71;75.86
62025;BME280;47978;49.118;12.146;2023-07-24T16:14:37;96469.41;;;21.65;77.62
62025;BME280;47978;49.118;12.146;2023-07-24T16:18:38;96458.59;;;21.49;77.95
62025;BME280;47978;49.118;12.146;2023-07-24T16:22:41;96469.41;;;21.15;76.56
62025;BME280;47978;49.118;12.146;2023-07-24T16:26:43;96474.59;;;21.34;76.03
62025;BME280;47978;49.118;12.146;2023-07-24T16:30:45;96479.81;;;21.14;75.85
62025;BME280;47978;49.118;12.146;2023-07-24T16:34:46;96475.41;;;21.09;76.38
62025;BME280;47978;49.118;12.146;2023-07-24T16:38:49;96474.63;;;21.13;76.90
62025;BME280;47978;49.118;12.146;2023-07-24T16:42:52;96465.78;;;21.07;75.08
62025;BME280;47978;49.118;12.146;2023-07-24T16:46:57;96461.38;;;21.09;75.44
62025;BME280;47978;49.118;12.146;2023-07-24T16:51:01;96456.53;;;20.96;76.18
62025;BME280;47978;49.118;12.146;2023-07-24T16:55:05;96444.47;;;20.92;75.59
62025;BME280;47978;49.118;12.146;2023-07-24T16:59:07;96429.22;;;20.78;76.31
62025;BME280;47978;49.118;12.146;2023-07-24T17:03:09;96444.06;;;20.82;76.57
62025;BME280;47978;49.118;12.146;2023-07-24T17:07:11;96447.66;;;20.83;77.56
62025;BME280;47978;49.118;12.146;2023-07-24T17:11:14;96448.06;;;20.88;76.83
62025;BME280;47978;49.118;12.146;2023-07-24T17:15:16;96472.16;;;20.86;76.22
62025;BME280;47978;49.118;12.146;2023-07-24T17:19:17;96451.31;;;20.83;77.52
62025;BME280;47978;49.118;12.146;2023-07-24T17:23:19;96449.28;;;20.77;78.00
62025;BME280;47978;49.118;12.146;2023-07-24T17:27:22;96450.91;;;20.81;77.62
62025;BME280;47978;49.118;12.146;2023-07-24T17:31:24;96450.06;;;20.70;76.53
62025;BME280;47978;49.118;12.146;2023-07-24T17:35:25;96416.78;;;21.04;76.48
62025;BME280;47978;49.118;12.146;2023-07-24T17:39:27;96396.69;;;21.13;75.64
62025;BME280;47978;49.118;12.146;2023-07-24T17:43:30;96393.09;;;21.41;74.13
62025;BME280;47978;49.118;12.146;2023-07-24T17:47:31;96377.00;;;21.24;74.20
62025;BME280;47978;49.118;12.146;2023-07-24T17:51:33;96386.63;;;21.30;74.00
62025;BME280;47978;49.118;12.146;2023-07-24T17:55:35;96397.91;;;21.05;73.75
62025;BME280;47978;49.118;12.146;2023-07-24T17:59:38;96401.13;;;21.03;74.00
62025;BME280;47978;49.118;12.146;2023-07-24T18:03:39;96391.06;;;21.06;74.45
62025;BME280;47978;49.118;12.146;2023-07-24T18:07:41;96385.88;;;21.04;74.85
62025;BME280;47978;49.118;12.146;2023-07-24T18:11:43;96382.63;;;20.92;74.32
62025;BME280;47978;49.118;12.146;2023-07-24T18:15:45;96388.25;;;20.77;75.32
62025;BME280;47978;49.118;12.146;2023-07-24T18:19:47;96384.63;;;20.59;74.75
62025;BME280;47978;49.118;12.146;2023-07-24T18:23:49;96398.63;;;20.52;76.66
62025;BME280;47978;49.118;12.146;2023-07-24T18:27:50;96397.75;;;20.19;76.94
62025;BME280;47978;49.118;12.146;2023-07-24T18:31:53;96391.31;;;20.15;77.59
62025;BME280;47978;49.118;12.146;2023-07-24T18:35:55;96386.56;;;20.30;77.22
62025;BME280;47978;49.118;12.146;2023-07-24T18:39:56;96422.25;;;20.33;76.45
62025;BME280;47978;49.118;12.146;2023-07-24T18:43:58;96437.75;;;19.94;79.33
62025;BME280;47978;49.118;12.146;2023-07-24T18:48:01;96445.72;;;19.85;80.87
62025;BME280;47978;49.118;12.146;2023-07-24T18:52:04;96447.28;;;19.75;79.93
62025;BME280;47978;49.118;12.146;2023-07-24T18:56:06;96453.94;;;19.60;79.06
62025;BME280;47978;49.118;12.146;2023-07-24T19:00:08;96465.63;;;19.66;79.70
62025;BME280;47978;49.118;12.146;2023-07-24T19:04:11;96475.16;;;19.58;79.01
62025;BME280;47978;49.118;12.146;2023-07-24T19:08:13;96492.00;;;19.58;78.80
62025;BME280;47978;49.118;12.146;2023-07-24T19:12:15;96498.16;;;19.26;80.85
62025;BME280;47978;49.118;12.146;2023-07-24T19:16:16;96512.63;;;19.31;81.27
62025;BME280;47978;49.118;12.146;2023-07-24T19:20:19;96517.72;;;18.78;82.60
62025;BME280;47978;49.118;12.146;2023-07-24T19:24:21;96516.75;;;19.00;82.64
62025;BME280;47978;49.118;12.146;2023-07-24T19:28:23;96514.44;;;18.72;83.77
62025;BME280;47978;49.118;12.146;2023-07-24T19:32:25;96519.50;;;18.59;84.44
62025;BME280;47978;49.118;12.146;2023-07-24T19:36:28;96529.38;;;18.50;86.46
62025;BME280;47978;49.118;12.146;2023-07-24T19:40:29;96526.50;;;18.42;86.02
62025;BME280;47978;49.118;12.146;2023-07-24T19:44:32;96522.78;;;18.35;85.57
62025;BME280;47978;49.118;12.146;2023-07-24T19:48:34;96523.66;;;18.09;87.36
62025;BME280;47978;49.118;12.146;2023-07-24T19:52:37;96524.91;;;18.11;86.92
62025;BME280;47978;49.118;12.146;2023-07-24T19:56:39;96539.84;;;18.23;86.60
62025;BME280;47978;49.118;12.146;2023-07-24T20:00:41;96540.16;;;18.17;86.58
62025;BME280;47978;49.118;12.146;2023-07-24T20:04:43;96540.78;;;18.34;86.76
62025;BME280;47978;49.118;12.146;2023-07-24T20:08:46;96539.41;;;18.20;87.47
62025;BME280;47978;49.118;12.146;2023-07-24T20:12:47;96554.09;;;18.44;86.52
62025;BME280;47978;49.118;12.146;2023-07-24T20:16:49;96545.22;;;18.38;86.93
62025;BME280;47978;49.118;12.146;2023-07-24T20:20:51;96548.09;;;18.42;86.63
62025;BME280;47978;49.118;12.146;2023-07-24T20:24:54;96544.03;;;18.36;86.80
62025;BME280;47978;49.118;12.146;2023-07-24T20:28:56;96541.81;;;18.52;86.67
62025;BME280;47978;49.118;12.146;2023-07-24T20:32:57;96543.00;;;18.51;86.54
62025;BME280;47978;49.118;12.146;2023-07-24T20:36:59;96553.59;;;18.69;85.18
62025;BME280;47978;49.118;12.146;2023-07-24T20:41:02;96558.75;;;18.97;83.68
62025;BME280;47978;49.118;12.146;2023-07-24T20:45:05;96549.72;;;18.77;85.24
62025;BME280;47978;49.118;12.146;2023-07-24T20:49:06;96533.09;;;18.95;84.12
62025;BME280;47978;49.118;12.146;2023-07-24T20:53:08;96534.34;;;18.97;84.02
62025;BME280;47978;49.118;12.146;2023-07-24T20:57:11;96535.59;;;19.03;84.39
62025;BME280;47978;49.118;12.146;2023-07-24T21:01:13;96535.97;;;18.98;84.22
62025;BME280;47978;49.118;12.146;2023-07-24T21:05:14;96532.69;;;18.93;84.82
62025;BME280;47978;49.118;12.146;2023-07-24T21:09:16;96522.66;;;18.92;85.24
62025;BME280;47978;49.118;12.146;2023-07-24T21:13:19;96523.91;;;18.94;85.12
62025;BME280;47978;49.118;12.146;2023-07-24T21:17:21;96529.50;;;18.94;85.36
62025;BME280;47978;49.118;12.146;2023-07-24T21:21:23;96533.84;;;18.88;85.75
62025;BME280;47978;49.118;12.146;2023-07-24T21:25:24;96515.34;;;18.80;86.57
62025;BME280;47978;49.118;12.146;2023-07-24T21:29:27;96521.78;;;18.84;86.74
62025;BME280;47978;49.118;12.146;2023-07-24T21:33:29;96523.44;;;18.88;86.67
62025;BME280;47978;49.118;12.146;2023-07-24T21:37:30;96521.41;;;18.85;87.50
62025;BME280;47978;49.118;12.146;2023-07-24T21:41:32;96521.66;;;18.73;88.77
62025;BME280;47978;49.118;12.146;2023-07-24T21:45:35;96518.59;;;18.82;88.74
62025;BME280;47978;49.118;12.146;2023-07-24T21:49:37;96515.63;;;18.71;89.73
62025;BME280;47978;49.118;12.146;2023-07-24T21:53:38;96520.72;;;18.62;90.57
62025;BME280;47978;49.118;12.146;2023-07-24T21:57:40;96536.81;;;18.69;90.05
62025;BME280;47978;49.118;12.146;2023-07-24T22:01:43;96532.81;;;18.70;90.44
62025;BME280;47978;49.118;12.146;2023-07-24T22:05:44;96533.63;;;18.70;90.41
62025;BME280;47978;49.118;12.146;2023-07-24T22:09:46;96533.00;;;18.50;91.34
62025;BME280;47978;49.118;12.146;2023-07-24T22:13:47;96542.81;;;18.37;91.39
62025;BME280;47978;49.118;12.146;2023-07-24T22:17:50;96549.16;;;18.30;91.50
62025;BME280;47978;49.118;12.146;2023-07-24T22:21:52;96560.28;;;18.27;92.15
62025;BME280;47978;49.118;12.146;2023-07-24T22:25:54;96552.22;;;18.22;91.89
62025;BME280;47978;49.118;12.146;2023-07-24T22:29:55;96564.91;;;18.15;92.08
62025;BME280;47978;49.118;12.146;2023-07-24T22:33:58;96563.31;;;18.14;92.32
62025;BME280;47978;49.118;12.146;2023-07-24T22:37:59;96580.44;;;18.09;92.38